sensor_id;sensor_type;location;lat;lon;timestamp;P1;durP1;ratioP1;P2;durP2;ratioP2
31004;SDS011;17676;52.254;4.490;2023-07-31T00:00:57;34.97;;;6.95;;
31004;SDS011;17676;52.254;4.490;2023-07-31T00:03:23;35.00;;;6.60;;
31004;SDS011;17676;52.254;4.490;2023-07-31T00:05:48;32.10;;;6.63;;
31004;SDS011;17676;52.254;4.490;2023-07-31T00:08:13;31.92;;;5.80;;
31004;SDS011;17676;52.254;4.490;2023-07-31T00:10:39;31.63;;;5.18;;
31004;SDS011;17676;52.254;4.490;2023-07-31T00:13:04;24.55;;;4.93;;
31004;SDS011;17676;52.254;4.490;2023-07-31T00:15:30;26.80;;;4.30;;
31004;SDS011;17676;52.254;4.490;2023-07-31T00:17:55;24.45;;;4.95;;
31004;SDS011;17676;52.254;4.490;2023-07-31T00:20:21;17.60;;;2.70;;
31004;SDS011;17676;52.254;4.490;2023-07-31T00:22:46;16.90;;;3.60;;
31004;SDS011;17676;52.254;4.490;2023-07-31T00:25:11;18.40;;;3.58;;
31004;SDS011;17676;52.254;4.490;2023-07-31T00:27:37;17.60;;;3.00;;
31004;SDS011;17676;52.254;4.490;2023-07-31T00:30:02;15.68;;;3.10;;
31004;SDS011;17676;52.254;4.490;2023-07-31T00:32:28;14.57;;;3.67;;
31004;SDS011;17676;52.254;4.490;2023-07-31T00:34:54;17.92;;;3.67;;
31004;SDS011;17676;52.254;4.490;2023-07-31T00:37:19;16.60;;;4.00;;
31004;SDS011;17676;52.254;4.490;2023-07-31T00:39:44;28.10;;;4.43;;
31004;SDS011;17676;52.254;4.490;2023-07-31T00:42:10;28.33;;;4.75;;
31004;SDS011;17676;52.254;4.490;2023-07-31T00:44:35;27.80;;;5.75;;
31004;SDS011;17676;52.254;4.490;2023-07-31T00:47:00;27.45;;;5.70;;
31004;SDS011;17676;52.254;4.490;2023-07-31T00:49:26;29.40;;;7.32;;
31004;SDS011;17676;52.254;4.490;2023-07-31T00:51:52;28.98;;;6.10;;
31004;SDS011;17676;52.254;4.490;2023-07-31T00:54:19;26.20;;;5.55;;
31004;SDS011;17676;52.254;4.490;2023-07-31T00:56:44;24.02;;;5.50;;
31004;SDS011;17676;52.254;4.490;2023-07-31T00:59:11;27.85;;;6.53;;
31004;SDS011;17676;52.254;4.490;2023-07-31T01:01:37;33.53;;;6.93;;
31004;SDS011;17676;52.254;4.490;2023-07-31T01:04:03;30.60;;;7.28;;
31004;SDS011;17676;52.254;4.490;2023-07-31T01:06:45;29.67;;;5.88;;
31004;SDS011;17676;52.254;4.490;2023-07-31T01:09:36;22.88;;;5.53;;
31004;SDS011;17676;52.254;4.490;2023-07-31T01:12:13;28.25;;;6.63;;
31004;SDS011;17676;52.254;4.490;2023-07-31T01:14:40;30.42;;;6.53;;
31004;SDS011;17676;52.254;4.490;2023-07-31T01:17:05;41.10;;;6.82;;
31004;SDS011;17676;52.254;4.490;2023-07-31T01:19:31;24.88;;;6.90;;
31004;SDS011;17676;52.254;4.490;2023-07-31T01:22:16;27.88;;;5.45;;
31004;SDS011;17676;52.254;4.490;2023-07-31T01:27:43;28.60;;;6.93;;
31004;SDS011;17676;52.254;4.490;2023-07-31T01:30:16;29.80;;;6.03;;
31004;SDS011;17676;52.254;4.490;2023-07-31T01:32:49;26.73;;;6.25;;
31004;SDS011;17676;52.254;4.490;2023-07-31T01:35:16;29.50;;;6.25;;
31004;SDS011;17676;52.254;4.490;2023-07-31T01:37:42;32.58;;;6.50;;
31004;SDS011;17676;52.254;4.490;2023-07-31T01:40:09;31.48;;;6.53;;
31004;SDS011;17676;52.254;4.490;2023-07-31T01:42:34;32.83;;;6.82;;
31004;SDS011;17676;52.254;4.490;2023-07-31T01:45:00;25.60;;;6.43;;
31004;SDS011;17676;52.254;4.490;2023-07-31T01:47:25;30.67;;;7.07;;
31004;SDS011;17676;52.254;4.490;2023-07-31T01:49:50;26.55;;;5.78;;
31004;SDS011;17676;52.254;4.490;2023-07-31T01:52:16;28.45;;;7.30;;
31004;SDS011;17676;52.254;4.490;2023-07-31T01:54:41;25.63;;;6.93;;
31004;SDS011;17676;52.254;4.490;2023-07-31T01:57:07;29.75;;;7.18;;
31004;SDS011;17676;52.254;4.490;2023-07-31T01:59:32;25.75;;;6.30;;
31004;SDS011;17676;52.254;4.490;2023-07-31T02:01:57;30.45;;;7.32;;
31004;SDS011;17676;52.254;4.490;2023-07-31T02:04:23;30.48;;;6.18;;
31004;SDS011;17676;52.254;4.490;2023-07-31T02:06:48;26.58;;;5.35;;
31004;SDS011;17676;52.254;4.490;2023-07-31T02:09:14;29.60;;;6.57;;
31004;SDS011;17676;52.254;4.490;2023-07-31T02:11:39;31.65;;;6.45;;
31004;SDS011;17676;52.254;4.490;2023-07-31T02:14:05;27.75;;;6.45;;
31004;SDS011;17676;52.254;4.490;2023-07-31T02:16:30;32.72;;;6.63;;
31004;SDS011;17676;52.254;4.490;2023-07-31T02:18:55;34.53;;;6.40;;
31004;SDS011;17676;52.254;4.490;2023-07-31T02:21:21;25.58;;;5.93;;
31004;SDS011;17676;52.254;4.490;2023-07-31T02:23:47;24.52;;;5.82;;
31004;SDS011;17676;52.254;4.490;2023-07-31T02:26:12;26.38;;;5.68;;
31004;SDS011;17676;52.254;4.490;2023-07-31T02:28:37;29.25;;;7.13;;
31004;SDS011;17676;52.254;4.490;2023-07-31T02:31:03;22.55;;;5.90;;
31004;SDS011;17676;52.254;4.490;2023-07-31T02:33:28;28.17;;;6.22;;
31004;SDS011;17676;52.254;4.490;2023-07-31T02:35:54;29.48;;;6.57;;
31004;SDS011;17676;52.254;4.490;2023-07-31T02:38:19;22.92;;;5.72;;
31004;SDS011;17676;52.254;4.490;2023-07-31T02:40:44;25.45;;;5.78;;
31004;SDS011;17676;52.254;4.490;2023-07-31T02:43:10;28.15;;;6.32;;
31004;SDS011;17676;52.254;4.490;2023-07-31T02:45:35;26.83;;;6.35;;
31004;SDS011;17676;52.254;4.490;2023-07-31T02:48:00;20.52;;;5.93;;
31004;SDS011;17676;52.254;4.490;2023-07-31T02:50:26;29.55;;;6.00;;
31004;SDS011;17676;52.254;4.490;2023-07-31T02:52:52;29.40;;;5.68;;
31004;SDS011;17676;52.254;4.490;2023-07-31T02:55:18;21.90;;;5.70;;
31004;SDS011;17676;52.254;4.490;2023-07-31T02:57:43;24.90;;;7.22;;
31004;SDS011;17676;52.254;4.490;2023-07-31T03:00:09;34.65;;;7.32;;
31004;SDS011;17676;52.254;4.490;2023-07-31T03:02:34;32.28;;;6.75;;
31004;SDS011;17676;52.254;4.490;2023-07-31T03:05:00;21.08;;;5.15;;
31004;SDS011;17676;52.254;4.490;2023-07-31T03:07:26;33.95;;;6.07;;
31004;SDS011;17676;52.254;4.490;2023-07-31T03:09:51;28.42;;;6.35;;
31004;SDS011;17676;52.254;4.490;2023-07-31T03:12:17;36.15;;;7.88;;
31004;SDS011;17676;52.254;4.490;2023-07-31T03:14:42;31.95;;;6.45;;
31004;SDS011;17676;52.254;4.490;2023-07-31T03:17:08;28.10;;;7.25;;
31004;SDS011;17676;52.254;4.490;2023-07-31T03:19:33;30.00;;;6.43;;
31004;SDS011;17676;52.254;4.490;2023-07-31T03:21:59;26.90;;;5.85;;
31004;SDS011;17676;52.254;4.490;2023-07-31T03:24:25;35.20;;;6.72;;
31004;SDS011;17676;52.254;4.490;2023-07-31T03:26:51;26.55;;;5.50;;
31004;SDS011;17676;52.254;4.490;2023-07-31T03:29:16;28.13;;;5.93;;
31004;SDS011;17676;52.254;4.490;2023-07-31T03:31:42;39.22;;;8.05;;
31004;SDS011;17676;52.254;4.490;2023-07-31T03:34:07;25.15;;;5.90;;
31004;SDS011;17676;52.254;4.490;2023-07-31T03:36:33;24.27;;;5.80;;
31004;SDS011;17676;52.254;4.490;2023-07-31T03:38:58;21.25;;;4.90;;
31004;SDS011;17676;52.254;4.490;2023-07-31T03:41:24;27.35;;;5.28;;
31004;SDS011;17676;52.254;4.490;2023-07-31T03:43:50;25.90;;;5.50;;
31004;SDS011;17676;52.254;4.490;2023-07-31T03:46:17;30.17;;;6.13;;
31004;SDS011;17676;52.254;4.490;2023-07-31T03:48:42;24.88;;;5.80;;
31004;SDS011;17676;52.254;4.490;2023-07-31T03:51:08;32.65;;;6.90;;
31004;SDS011;17676;52.254;4.490;2023-07-31T03:53:33;26.33;;;5.85;;
31004;SDS011;17676;52.254;4.490;2023-07-31T03:55:58;27.88;;;5.68;;
31004;SDS011;17676;52.254;4.490;2023-07-31T03:58:24;18.98;;;3.85;;
31004;SDS011;17676;52.254;4.490;2023-07-31T04:00:49;21.00;;;4.43;;
31004;SDS011;17676;52.254;4.490;2023-07-31T04:03:15;18.70;;;3.95;;
31004;SDS011;17676;52.254;4.490;2023-07-31T04:05:43;14.45;;;2.88;;
31004;SDS011;17676;52.254;4.490;2023-07-31T04:08:09;11.45;;;2.55;;
31004;SDS011;17676;52.254;4.490;2023-07-31T04:10:34;7.32;;;1.33;;
31004;SDS011;17676;52.254;4.490;2023-07-31T04:13:00;15.93;;;2.60;;
31004;SDS011;17676;52.254;4.490;2023-07-31T04:15:25;9.80;;;1.98;;
31004;SDS011;17676;52.254;4.490;2023-07-31T04:17:51;15.13;;;2.05;;
31004;SDS011;17676;52.254;4.490;2023-07-31T04:20:16;9.90;;;2.60;;
31004;SDS011;17676;52.254;4.490;2023-07-31T04:22:42;11.05;;;1.92;;
31004;SDS011;17676;52.254;4.490;2023-07-31T04:25:07;12.05;;;1.88;;
31004;SDS011;17676;52.254;4.490;2023-07-31T04:27:33;8.13;;;1.17;;
31004;SDS011;17676;52.254;4.490;2023-07-31T04:29:58;9.57;;;1.42;;
31004;SDS011;17676;52.254;4.490;2023-07-31T04:32:23;7.80;;;0.95;;
31004;SDS011;17676;52.254;4.490;2023-07-31T04:34:49;6.93;;;0.73;;
31004;SDS011;17676;52.254;4.490;2023-07-31T04:37:14;5.15;;;0.73;;
31004;SDS011;17676;52.254;4.490;2023-07-31T04:39:40;8.90;;;0.50;;
31004;SDS011;17676;52.254;4.490;2023-07-31T04:42:05;14.07;;;0.70;;
31004;SDS011;17676;52.254;4.490;2023-07-31T04:44:30;8.35;;;0.50;;
31004;SDS011;17676;52.254;4.490;2023-07-31T04:46:56;11.63;;;0.60;;
31004;SDS011;17676;52.254;4.490;2023-07-31T04:49:21;9.35;;;0.88;;
31004;SDS011;17676;52.254;4.490;2023-07-31T04:51:47;9.85;;;0.82;;
31004;SDS011;17676;52.254;4.490;2023-07-31T04:54:12;15.52;;;1.23;;
31004;SDS011;17676;52.254;4.490;2023-07-31T04:56:40;11.70;;;1.05;;
31004;SDS011;17676;52.254;4.490;2023-07-31T04:59:09;12.65;;;0.90;;
31004;SDS011;17676;52.254;4.490;2023-07-31T05:01:34;14.10;;;1.17;;
31004;SDS011;17676;52.254;4.490;2023-07-31T05:04:00;14.00;;;1.20;;
31004;SDS011;17676;52.254;4.490;2023-07-31T05:06:25;19.10;;;1.35;;
31004;SDS011;17676;52.254;4.490;2023-07-31T05:08:51;12.35;;;0.65;;
31004;SDS011;17676;52.254;4.490;2023-07-31T05:11:16;14.05;;;0.80;;
31004;SDS011;17676;52.254;4.490;2023-07-31T05:13:42;9.80;;;0.63;;
31004;SDS011;17676;52.254;4.490;2023-07-31T05:16:07;13.45;;;1.15;;
31004;SDS011;17676;52.254;4.490;2023-07-31T05:18:33;16.48;;;1.83;;
31004;SDS011;17676;52.254;4.490;2023-07-31T05:20:58;10.50;;;0.82;;
31004;SDS011;17676;52.254;4.490;2023-07-31T05:23:26;11.02;;;0.95;;
31004;SDS011;17676;52.254;4.490;2023-07-31T05:25:51;11.20;;;1.70;;
31004;SDS011;17676;52.254;4.490;2023-07-31T05:28:17;15.77;;;1.35;;
31004;SDS011;17676;52.254;4.490;2023-07-31T05:30:42;14.98;;;1.15;;
31004;SDS011;17676;52.254;4.490;2023-07-31T05:33:08;14.70;;;2.00;;
31004;SDS011;17676;52.254;4.490;2023-07-31T05:35:33;14.10;;;1.77;;
31004;SDS011;17676;52.254;4.490;2023-07-31T05:37:58;12.02;;;1.73;;
31004;SDS011;17676;52.254;4.490;2023-07-31T05:40:24;14.55;;;1.95;;
31004;SDS011;17676;52.254;4.490;2023-07-31T05:42:49;12.00;;;2.28;;
31004;SDS011;17676;52.254;4.490;2023-07-31T05:45:15;9.02;;;1.60;;
31004;SDS011;17676;52.254;4.490;2023-07-31T05:47:41;14.02;;;2.28;;
31004;SDS011;17676;52.254;4.490;2023-07-31T05:50:06;9.73;;;1.65;;
31004;SDS011;17676;52.254;4.490;2023-07-31T05:52:32;18.05;;;1.92;;
31004;SDS011;17676;52.254;4.490;2023-07-31T05:54:58;18.10;;;1.90;;
31004;SDS011;17676;52.254;4.490;2023-07-31T05:57:23;14.32;;;2.08;;
31004;SDS011;17676;52.254;4.490;2023-07-31T05:59:49;16.95;;;2.17;;
31004;SDS011;17676;52.254;4.490;2023-07-31T06:02:14;16.08;;;1.77;;
31004;SDS011;17676;52.254;4.490;2023-07-31T06:04:40;18.27;;;3.10;;
31004;SDS011;17676;52.254;4.490;2023-07-31T06:07:08;20.73;;;2.47;;
31004;SDS011;17676;52.254;4.490;2023-07-31T06:09:33;22.42;;;3.25;;
31004;SDS011;17676;52.254;4.490;2023-07-31T06:11:59;25.30;;;2.90;;
31004;SDS011;17676;52.254;4.490;2023-07-31T06:14:25;17.65;;;2.42;;
31004;SDS011;17676;52.254;4.490;2023-07-31T06:16:50;13.75;;;1.95;;
31004;SDS011;17676;52.254;4.490;2023-07-31T06:19:16;22.00;;;3.15;;
31004;SDS011;17676;52.254;4.490;2023-07-31T06:21:41;14.10;;;2.50;;
31004;SDS011;17676;52.254;4.490;2023-07-31T06:24:09;22.25;;;2.80;;
31004;SDS011;17676;52.254;4.490;2023-07-31T06:26:37;13.20;;;2.10;;
31004;SDS011;17676;52.254;4.490;2023-07-31T06:29:02;19.92;;;2.40;;
31004;SDS011;17676;52.254;4.490;2023-07-31T06:31:28;10.20;;;1.92;;
31004;SDS011;17676;52.254;4.490;2023-07-31T06:33:53;17.33;;;2.42;;
31004;SDS011;17676;52.254;4.490;2023-07-31T06:36:19;13.13;;;1.80;;
31004;SDS011;17676;52.254;4.490;2023-07-31T06:38:44;19.58;;;2.20;;
31004;SDS011;17676;52.254;4.490;2023-07-31T06:41:10;24.40;;;2.38;;
31004;SDS011;17676;52.254;4.490;2023-07-31T06:43:36;17.63;;;2.67;;
31004;SDS011;17676;52.254;4.490;2023-07-31T06:46:05;18.70;;;3.00;;
31004;SDS011;17676;52.254;4.490;2023-07-31T06:48:34;31.77;;;3.25;;
31004;SDS011;17676;52.254;4.490;2023-07-31T06:51:01;23.08;;;3.15;;
31004;SDS011;17676;52.254;4.490;2023-07-31T06:53:30;20.00;;;2.15;;
31004;SDS011;17676;52.254;4.490;2023-07-31T06:55:55;17.08;;;2.33;;
31004;SDS011;17676;52.254;4.490;2023-07-31T06:58:21;23.05;;;3.72;;
31004;SDS011;17676;52.254;4.490;2023-07-31T07:00:46;25.60;;;3.40;;
31004;SDS011;17676;52.254;4.490;2023-07-31T07:03:14;17.45;;;3.25;;
31004;SDS011;17676;52.254;4.490;2023-07-31T07:05:39;18.42;;;3.08;;
31004;SDS011;17676;52.254;4.490;2023-07-31T07:08:05;23.20;;;3.50;;
31004;SDS011;17676;52.254;4.490;2023-07-31T07:10:31;23.75;;;3.58;;
31004;SDS011;17676;52.254;4.490;2023-07-31T07:12:56;22.60;;;3.63;;
31004;SDS011;17676;52.254;4.490;2023-07-31T07:15:22;20.60;;;3.88;;
31004;SDS011;17676;52.254;4.490;2023-07-31T07:17:47;22.58;;;4.13;;
31004;SDS011;17676;52.254;4.490;2023-07-31T07:20:13;22.95;;;4.18;;
31004;SDS011;17676;52.254;4.490;2023-07-31T07:22:38;23.30;;;4.70;;
31004;SDS011;17676;52.254;4.490;2023-07-31T07:25:04;23.08;;;3.83;;
31004;SDS011;17676;52.254;4.490;2023-07-31T07:27:30;23.95;;;3.90;;
31004;SDS011;17676;52.254;4.490;2023-07-31T07:29:56;18.48;;;3.10;;
31004;SDS011;17676;52.254;4.490;2023-07-31T07:32:21;21.92;;;2.83;;
31004;SDS011;17676;52.254;4.490;2023-07-31T07:34:47;22.27;;;3.63;;
31004;SDS011;17676;52.254;4.490;2023-07-31T07:37:13;30.27;;;3.92;;
31004;SDS011;17676;52.254;4.490;2023-07-31T07:39:39;24.95;;;3.72;;
31004;SDS011;17676;52.254;4.490;2023-07-31T07:42:05;23.35;;;3.30;;
31004;SDS011;17676;52.254;4.490;2023-07-31T07:44:30;19.73;;;3.03;;
31004;SDS011;17676;52.254;4.490;2023-07-31T07:46:56;19.90;;;2.60;;
31004;SDS011;17676;52.254;4.490;2023-07-31T07:49:21;24.48;;;2.50;;
31004;SDS011;17676;52.254;4.490;2023-07-31T07:51:48;16.65;;;3.05;;
31004;SDS011;17676;52.254;4.490;2023-07-31T07:54:14;26.33;;;2.72;;
31004;SDS011;17676;52.254;4.490;2023-07-31T07:56:41;21.33;;;3.15;;
31004;SDS011;17676;52.254;4.490;2023-07-31T07:59:07;15.82;;;2.33;;
31004;SDS011;17676;52.254;4.490;2023-07-31T08:01:32;23.33;;;2.67;;
31004;SDS011;17676;52.254;4.490;2023-07-31T08:03:58;14.10;;;2.00;;
31004;SDS011;17676;52.254;4.490;2023-07-31T08:06:23;13.15;;;1.48;;
31004;SDS011;17676;52.254;4.490;2023-07-31T08:08:49;20.55;;;2.22;;
31004;SDS011;17676;52.254;4.490;2023-07-31T08:11:14;15.40;;;1.85;;
31004;SDS011;17676;52.254;4.490;2023-07-31T08:13:40;12.70;;;2.25;;
31004;SDS011;17676;52.254;4.490;2023-07-31T08:16:05;13.85;;;2.28;;
31004;SDS011;17676;52.254;4.490;2023-07-31T08:18:31;15.52;;;2.35;;
31004;SDS011;17676;52.254;4.490;2023-07-31T08:20:57;21.02;;;2.03;;
31004;SDS011;17676;52.254;4.490;2023-07-31T08:23:23;16.55;;;2.25;;
31004;SDS011;17676;52.254;4.490;2023-07-31T08:25:48;18.85;;;2.45;;
31004;SDS011;17676;52.254;4.490;2023-07-31T08:28:15;16.05;;;2.40;;
31004;SDS011;17676;52.254;4.490;2023-07-31T08:30:41;22.00;;;2.40;;
31004;SDS011;17676;52.254;4.490;2023-07-31T08:33:07;14.98;;;2.38;;
31004;SDS011;17676;52.254;4.490;2023-07-31T08:35:32;20.15;;;2.97;;
31004;SDS011;17676;52.254;4.490;2023-07-31T08:37:57;21.13;;;2.10;;
31004;SDS011;17676;52.254;4.490;2023-07-31T08:40:23;17.05;;;2.65;;
31004;SDS011;17676;52.254;4.490;2023-07-31T08:42:49;22.85;;;2.10;;
31004;SDS011;17676;52.254;4.490;2023-07-31T08:45:21;23.98;;;3.60;;
31004;SDS011;17676;52.254;4.490;2023-07-31T08:47:48;21.90;;;2.53;;
31004;SDS011;17676;52.254;4.490;2023-07-31T08:50:17;22.55;;;1.77;;
31004;SDS011;17676;52.254;4.490;2023-07-31T08:52:45;15.98;;;2.03;;
31004;SDS011;17676;52.254;4.490;2023-07-31T08:55:12;20.75;;;3.00;;
31004;SDS011;17676;52.254;4.490;2023-07-31T08:57:38;21.17;;;2.75;;
31004;SDS011;17676;52.254;4.490;2023-07-31T09:00:04;15.75;;;1.65;;
31004;SDS011;17676;52.254;4.490;2023-07-31T09:05:26;20.58;;;2.28;;
31004;SDS011;17676;52.254;4.490;2023-07-31T09:07:54;19.77;;;2.65;;
31004;SDS011;17676;52.254;4.490;2023-07-31T09:10:21;10.98;;;1.63;;
31004;SDS011;17676;52.254;4.490;2023-07-31T09:12:47;17.70;;;1.67;;
31004;SDS011;17676;52.254;4.490;2023-07-31T09:15:14;22.88;;;2.67;;
31004;SDS011;17676;52.254;4.490;2023-07-31T09:17:40;14.75;;;1.80;;
31004;SDS011;17676;52.254;4.490;2023-07-31T09:22:40;17.02;;;1.98;;
31004;SDS011;17676;52.254;4.490;2023-07-31T09:25:18;20.58;;;2.47;;
31004;SDS011;17676;52.254;4.490;2023-07-31T09:30:20;25.23;;;1.90;;
31004;SDS011;17676;52.254;4.490;2023-07-31T09:32:52;14.65;;;2.42;;
31004;SDS011;17676;52.254;4.490;2023-07-31T09:35:33;14.15;;;1.95;;
31004;SDS011;17676;52.254;4.490;2023-07-31T09:38:00;18.15;;;2.05;;
31004;SDS011;17676;52.254;4.490;2023-07-31T09:40:30;18.55;;;2.03;;
31004;SDS011;17676;52.254;4.490;2023-07-31T09:42:57;15.45;;;1.88;;
31004;SDS011;17676;52.254;4.490;2023-07-31T09:45:24;17.33;;;2.05;;
31004;SDS011;17676;52.254;4.490;2023-07-31T09:47:50;15.52;;;2.03;;
31004;SDS011;17676;52.254;4.490;2023-07-31T09:50:16;10.88;;;1.25;;
31004;SDS011;17676;52.254;4.490;2023-07-31T09:52:42;13.02;;;1.45;;
31004;SDS011;17676;52.254;4.490;2023-07-31T09:55:08;14.90;;;1.73;;
31004;SDS011;17676;52.254;4.490;2023-07-31T09:57:36;13.82;;;2.58;;
31004;SDS011;17676;52.254;4.490;2023-07-31T10:00:10;14.77;;;1.35;;
31004;SDS011;17676;52.254;4.490;2023-07-31T10:02:37;10.65;;;1.60;;
31004;SDS011;17676;52.254;4.490;2023-07-31T10:05:04;15.63;;;2.05;;
31004;SDS011;17676;52.254;4.490;2023-07-31T10:07:31;11.00;;;1.20;;
31004;SDS011;17676;52.254;4.490;2023-07-31T10:09:59;8.70;;;1.17;;
31004;SDS011;17676;52.254;4.490;2023-07-31T10:12:28;11.63;;;1.55;;
31004;SDS011;17676;52.254;4.490;2023-07-31T10:14:55;12.70;;;1.63;;
31004;SDS011;17676;52.254;4.490;2023-07-31T10:17:24;13.50;;;1.77;;
31004;SDS011;17676;52.254;4.490;2023-07-31T10:19:50;10.82;;;2.00;;
31004;SDS011;17676;52.254;4.490;2023-07-31T10:22:16;16.52;;;1.90;;
31004;SDS011;17676;52.254;4.490;2023-07-31T10:24:43;12.43;;;2.08;;
31004;SDS011;17676;52.254;4.490;2023-07-31T10:27:11;17.35;;;1.85;;
31004;SDS011;17676;52.254;4.490;2023-07-31T10:29:39;15.95;;;2.10;;
31004;SDS011;17676;52.254;4.490;2023-07-31T10:32:06;12.38;;;2.15;;
31004;SDS011;17676;52.254;4.490;2023-07-31T10:34:37;15.13;;;1.70;;
31004;SDS011;17676;52.254;4.490;2023-07-31T10:40:06;10.20;;;2.22;;
31004;SDS011;17676;52.254;4.490;2023-07-31T10:42:46;20.38;;;2.40;;
31004;SDS011;17676;52.254;4.490;2023-07-31T10:45:31;16.70;;;1.92;;
31004;SDS011;17676;52.254;4.490;2023-07-31T10:50:27;13.73;;;1.75;;
31004;SDS011;17676;52.254;4.490;2023-07-31T10:52:54;13.05;;;2.03;;
31004;SDS011;17676;52.254;4.490;2023-07-31T10:55:25;11.80;;;2.20;;
31004;SDS011;17676;52.254;4.490;2023-07-31T10:58:13;12.05;;;1.77;;
31004;SDS011;17676;52.254;4.490;2023-07-31T11:00:43;8.60;;;0.95;;
31004;SDS011;17676;52.254;4.490;2023-07-31T11:03:10;10.13;;;1.17;;
31004;SDS011;17676;52.254;4.490;2023-07-31T11:05:43;11.48;;;1.15;;
31004;SDS011;17676;52.254;4.490;2023-07-31T11:08:24;11.93;;;1.27;;
31004;SDS011;17676;52.254;4.490;2023-07-31T11:13:28;14.95;;;1.63;;
31004;SDS011;17676;52.254;4.490;2023-07-31T11:15:57;10.27;;;1.38;;
31004;SDS011;17676;52.254;4.490;2023-07-31T11:18:24;12.13;;;1.05;;
31004;SDS011;17676;52.254;4.490;2023-07-31T11:20:52;13.98;;;1.33;;
31004;SDS011;17676;52.254;4.490;2023-07-31T11:23:21;11.55;;;1.27;;
31004;SDS011;17676;52.254;4.490;2023-07-31T11:25:51;10.02;;;1.58;;
31004;SDS011;17676;52.254;4.490;2023-07-31T11:28:17;7.35;;;1.08;;
31004;SDS011;17676;52.254;4.490;2023-07-31T11:30:44;15.38;;;1.40;;
31004;SDS011;17676;52.254;4.490;2023-07-31T11:33:11;11.95;;;1.20;;
31004;SDS011;17676;52.254;4.490;2023-07-31T11:35:42;14.50;;;1.38;;
31004;SDS011;17676;52.254;4.490;2023-07-31T11:40:52;10.43;;;1.35;;
31004;SDS011;17676;52.254;4.490;2023-07-31T11:43:19;9.55;;;1.33;;
31004;SDS011;17676;52.254;4.490;2023-07-31T11:45:49;9.05;;;0.93;;
31004;SDS011;17676;52.254;4.490;2023-07-31T11:50:53;8.18;;;0.63;;
31004;SDS011;17676;52.254;4.490;2023-07-31T11:53:25;11.10;;;1.05;;
31004;SDS011;17676;52.254;4.490;2023-07-31T11:55:56;10.52;;;1.00;;
31004;SDS011;17676;52.254;4.490;2023-07-31T11:58:23;15.20;;;1.58;;
31004;SDS011;17676;52.254;4.490;2023-07-31T12:00:49;11.35;;;1.30;;
31004;SDS011;17676;52.254;4.490;2023-07-31T12:03:15;15.13;;;1.52;;
31004;SDS011;17676;52.254;4.490;2023-07-31T12:05:41;11.88;;;1.45;;
31004;SDS011;17676;52.254;4.490;2023-07-31T12:08:10;10.35;;;1.20;;
31004;SDS011;17676;52.254;4.490;2023-07-31T12:10:37;11.65;;;1.05;;
31004;SDS011;17676;52.254;4.490;2023-07-31T12:13:04;9.20;;;0.95;;
31004;SDS011;17676;52.254;4.490;2023-07-31T12:18:05;7.47;;;0.75;;
31004;SDS011;17676;52.254;4.490;2023-07-31T12:20:46;11.82;;;1.60;;
31004;SDS011;17676;52.254;4.490;2023-07-31T12:23:23;4.60;;;0.63;;
31004;SDS011;17676;52.254;4.490;2023-07-31T12:26:09;10.80;;;1.15;;
31004;SDS011;17676;52.254;4.490;2023-07-31T12:28:42;7.65;;;0.80;;
31004;SDS011;17676;52.254;4.490;2023-07-31T12:31:10;13.00;;;1.15;;
31004;SDS011;17676;52.254;4.490;2023-07-31T12:33:38;7.47;;;0.90;;
31004;SDS011;17676;52.254;4.490;2023-07-31T12:36:07;5.43;;;0.73;;
31004;SDS011;17676;52.254;4.490;2023-07-31T12:38:34;9.10;;;0.82;;
31004;SDS011;17676;52.254;4.490;2023-07-31T12:41:00;4.28;;;0.75;;
31004;SDS011;17676;52.254;4.490;2023-07-31T12:43:25;8.75;;;0.80;;
31004;SDS011;17676;52.254;4.490;2023-07-31T12:45:51;8.20;;;0.65;;
31004;SDS011;17676;52.254;4.490;2023-07-31T12:48:16;6.78;;;0.55;;
31004;SDS011;17676;52.254;4.490;2023-07-31T12:50:42;7.93;;;1.05;;
31004;SDS011;17676;52.254;4.490;2023-07-31T12:53:07;10.13;;;0.73;;
31004;SDS011;17676;52.254;4.490;2023-07-31T12:55:33;5.03;;;0.65;;
31004;SDS011;17676;52.254;4.490;2023-07-31T12:57:59;9.23;;;0.65;;
31004;SDS011;17676;52.254;4.490;2023-07-31T13:00:25;6.05;;;0.43;;
31004;SDS011;17676;52.254;4.490;2023-07-31T13:02:51;7.28;;;0.40;;
31004;SDS011;17676;52.254;4.490;2023-07-31T13:05:17;9.38;;;0.55;;
31004;SDS011;17676;52.254;4.490;2023-07-31T13:07:43;9.85;;;0.52;;
31004;SDS011;17676;52.254;4.490;2023-07-31T13:10:08;7.65;;;0.40;;
31004;SDS011;17676;52.254;4.490;2023-07-31T13:12:34;3.63;;;0.57;;
31004;SDS011;17676;52.254;4.490;2023-07-31T13:14:59;5.28;;;0.40;;
31004;SDS011;17676;52.254;4.490;2023-07-31T13:17:25;7.55;;;0.70;;
31004;SDS011;17676;52.254;4.490;2023-07-31T13:19:51;6.40;;;0.60;;
31004;SDS011;17676;52.254;4.490;2023-07-31T13:22:16;4.43;;;0.20;;
31004;SDS011;17676;52.254;4.490;2023-07-31T13:24:42;4.05;;;0.20;;
31004;SDS011;17676;52.254;4.490;2023-07-31T13:27:07;2.42;;;0.20;;
31004;SDS011;17676;52.254;4.490;2023-07-31T13:29:33;3.75;;;0.30;;
31004;SDS011;17676;52.254;4.490;2023-07-31T13:31:58;3.40;;;0.28;;
31004;SDS011;17676;52.254;4.490;2023-07-31T13:34:27;4.60;;;0.30;;
31004;SDS011;17676;52.254;4.490;2023-07-31T13:36:53;3.35;;;0.20;;
31004;SDS011;17676;52.254;4.490;2023-07-31T13:39:20;5.47;;;0.40;;
31004;SDS011;17676;52.254;4.490;2023-07-31T13:41:45;11.05;;;1.00;;
31004;SDS011;17676;52.254;4.490;2023-07-31T13:44:11;9.52;;;0.73;;
31004;SDS011;17676;52.254;4.490;2023-07-31T13:46:37;10.07;;;0.90;;
31004;SDS011;17676;52.254;4.490;2023-07-31T13:49:02;8.90;;;0.93;;
31004;SDS011;17676;52.254;4.490;2023-07-31T13:51:27;7.97;;;1.35;;
31004;SDS011;17676;52.254;4.490;2023-07-31T13:53:53;8.95;;;1.65;;
31004;SDS011;17676;52.254;4.490;2023-07-31T13:56:19;13.25;;;2.17;;
31004;SDS011;17676;52.254;4.490;2023-07-31T13:58:44;12.98;;;1.30;;
31004;SDS011;17676;52.254;4.490;2023-07-31T14:01:09;12.88;;;1.55;;
31004;SDS011;17676;52.254;4.490;2023-07-31T14:03:35;8.50;;;0.93;;
31004;SDS011;17676;52.254;4.490;2023-07-31T14:06:01;13.15;;;1.67;;
31004;SDS011;17676;52.254;4.490;2023-07-31T14:08:26;11.05;;;1.38;;
31004;SDS011;17676;52.254;4.490;2023-07-31T14:10:52;15.15;;;2.67;;
31004;SDS011;17676;52.254;4.490;2023-07-31T14:13:17;17.75;;;1.95;;
31004;SDS011;17676;52.254;4.490;2023-07-31T14:15:43;12.07;;;1.60;;
31004;SDS011;17676;52.254;4.490;2023-07-31T14:18:08;11.80;;;1.98;;
31004;SDS011;17676;52.254;4.490;2023-07-31T14:20:34;10.57;;;1.75;;
31004;SDS011;17676;52.254;4.490;2023-07-31T14:22:59;16.13;;;2.03;;
31004;SDS011;17676;52.254;4.490;2023-07-31T14:25:25;15.57;;;2.58;;
31004;SDS011;17676;52.254;4.490;2023-07-31T14:27:51;14.45;;;2.03;;
31004;SDS011;17676;52.254;4.490;2023-07-31T14:30:17;8.40;;;1.50;;
31004;SDS011;17676;52.254;4.490;2023-07-31T14:32:43;10.73;;;0.90;;
31004;SDS011;17676;52.254;4.490;2023-07-31T14:35:09;12.55;;;1.23;;
31004;SDS011;17676;52.254;4.490;2023-07-31T14:37:38;8.27;;;0.82;;
31004;SDS011;17676;52.254;4.490;2023-07-31T14:40:04;7.97;;;0.77;;
31004;SDS011;17676;52.254;4.490;2023-07-31T14:42:30;15.82;;;1.15;;
31004;SDS011;17676;52.254;4.490;2023-07-31T14:44:55;10.32;;;0.85;;
31004;SDS011;17676;52.254;4.490;2023-07-31T14:47:21;10.23;;;0.85;;
31004;SDS011;17676;52.254;4.490;2023-07-31T14:49:46;12.55;;;0.85;;
31004;SDS011;17676;52.254;4.490;2023-07-31T14:52:12;10.13;;;0.85;;
31004;SDS011;17676;52.254;4.490;2023-07-31T14:54:37;8.02;;;0.70;;
31004;SDS011;17676;52.254;4.490;2023-07-31T14:57:03;9.43;;;0.63;;
31004;SDS011;17676;52.254;4.490;2023-07-31T14:59:28;6.38;;;0.50;;